createdAt,value
2022-08-07T00:04:34.262Z,90
2022-08-07T00:14:35.138Z,90
2022-08-07T00:24:36.037Z,90
2022-08-07T00:34:36.388Z,89
2022-08-07T00:44:38.302Z,90
2022-08-07T01:04:40.436Z,91
2022-08-07T01:14:38.374Z,92
2022-08-07T01:24:38.678Z,93
2022-08-07T01:34:39.590Z,93
2022-08-07T01:44:40.005Z,93
2022-08-07T01:54:41.080Z,93
2022-08-07T02:04:52.456Z,93
2022-08-07T02:14:41.783Z,93
2022-08-07T02:24:44.589Z,94
2022-08-07T02:34:48.657Z,95
2022-08-07T02:44:45.829Z,95
2022-08-07T02:54:44.190Z,95
2022-08-07T03:04:44.886Z,95
2022-08-07T03:14:48.500Z,96
2022-08-07T03:24:46.568Z,95
2022-08-07T03:34:47.134Z,96
2022-08-07T03:44:53.276Z,96
2022-08-07T04:04:48.503Z,97
2022-08-07T04:14:49.369Z,97
2022-08-07T04:24:50.082Z,97
2022-08-07T04:34:50.292Z,98
2022-08-07T04:44:54.305Z,98
2022-08-07T04:54:51.786Z,98
2022-08-07T05:14:59.023Z,98
2022-08-07T05:24:53.672Z,97
2022-08-07T05:34:54.235Z,95
2022-08-07T05:45:04.597Z,93
2022-08-07T06:04:56.264Z,91
2022-08-07T06:14:58.744Z,89
2022-08-07T06:24:58.251Z,88
2022-08-07T06:34:57.276Z,87
2022-08-07T06:44:57.539Z,85
2022-08-07T06:55:30.983Z,83
2022-08-07T07:04:58.102Z,82
2022-08-07T07:14:58.684Z,80
2022-08-07T07:25:03.219Z,77
2022-08-07T07:35:00.103Z,76
2022-08-07T07:45:00.955Z,73
2022-08-07T07:55:01.875Z,72
2022-08-07T08:05:02.258Z,69
2022-08-07T08:15:06.943Z,67
2022-08-07T08:25:04.894Z,67
2022-08-07T08:35:04.273Z,66
2022-08-07T09:05:05.462Z,57
2022-08-07T09:25:12.223Z,55
2022-08-07T09:47:26.533Z,55
2022-08-07T09:55:16.846Z,53
2022-08-07T10:05:12.068Z,55
2022-08-07T10:15:15.238Z,53
2022-08-07T10:25:11.073Z,52
2022-08-07T10:35:12.468Z,52
2022-08-07T10:45:12.864Z,51
2022-08-07T10:55:21.038Z,51
2022-08-07T11:05:14.632Z,50
2022-08-07T11:15:17.555Z,50
2022-08-07T11:25:16.149Z,50
2022-08-07T11:35:16.470Z,50
2022-08-07T11:45:20.272Z,48
2022-08-07T11:55:18.778Z,49
2022-08-07T12:05:28.998Z,47
2022-08-07T12:15:36.101Z,48
2022-08-07T12:26:00.988Z,47
2022-08-07T12:35:20.628Z,47
2022-08-07T12:45:20.859Z,47
2022-08-07T12:55:21.492Z,48
2022-08-07T13:06:02.360Z,47
2022-08-07T13:15:23.416Z,46
2022-08-07T13:25:29.159Z,46
2022-08-07T13:35:25.190Z,46
2022-08-07T13:46:07.616Z,45
2022-08-07T13:55:33.985Z,47
2022-08-07T13:55:54.433Z,47
2022-08-07T14:05:38.124Z,46
2022-08-07T14:15:38.023Z,46
2022-08-07T14:25:39.191Z,46
2022-08-07T14:35:43.572Z,46
2022-08-07T14:45:46.147Z,47
2022-08-07T15:05:54.070Z,47
2022-08-07T15:15:41.030Z,47
2022-08-07T15:25:42.617Z,47
2022-08-07T15:36:01.101Z,48
2022-08-07T15:45:55.273Z,48
2022-08-07T15:55:53.233Z,49
2022-08-07T16:05:44.533Z,49
2022-08-07T16:15:56.481Z,49
2022-08-07T16:25:52.265Z,50
2022-08-07T16:35:52.293Z,50
2022-08-07T16:55:48.789Z,49
2022-08-07T17:15:51.736Z,50
2022-08-07T17:25:52.360Z,50
2022-08-07T17:35:55.489Z,50
2022-08-07T17:45:51.998Z,51
2022-08-07T17:55:55.681Z,52
2022-08-07T18:06:01.228Z,53
2022-08-07T18:15:54.134Z,53
2022-08-07T18:26:01.146Z,53
2022-08-07T18:35:55.670Z,54
2022-08-07T18:46:20.363Z,55
2022-08-07T18:55:57.734Z,56
2022-08-07T19:06:03.027Z,58
2022-08-07T19:16:03.947Z,59
2022-08-07T19:26:22.316Z,60
2022-08-07T19:35:59.305Z,61
2022-08-07T19:46:06.395Z,62
2022-08-07T19:56:01.071Z,63
2022-08-07T20:06:02.447Z,64
2022-08-07T20:16:02.703Z,64
2022-08-07T20:26:03.617Z,65
2022-08-07T20:36:03.917Z,66
2022-08-07T20:46:25.532Z,66
2022-08-07T20:56:05.408Z,67
2022-08-07T21:06:12.994Z,67
2022-08-07T21:26:08.051Z,69
2022-08-07T21:36:11.561Z,69
2022-08-07T21:46:24.904Z,70
2022-08-07T21:56:16.620Z,70
2022-08-07T22:06:28.932Z,71
2022-08-07T22:16:35.576Z,72
2022-08-07T22:26:11.587Z,73
2022-08-07T22:36:12.571Z,73
2022-08-07T22:46:42.677Z,74
2022-08-07T22:56:13.484Z,74
2022-08-07T23:16:45.020Z,75
2022-08-07T23:26:15.183Z,76
2022-08-07T23:36:17.044Z,77
2022-08-07T23:46:19.869Z,77
2022-08-07T23:56:20.712Z,78
